createdAt,value
2022-12-19T00:00:55.230Z,1.90
2022-12-19T00:03:12.441Z,1.90
2022-12-19T00:05:18.087Z,1.90
2022-12-19T00:07:22.729Z,1.90
2022-12-19T00:09:26.158Z,1.90
2022-12-19T00:11:29.399Z,1.90
2022-12-19T00:13:32.992Z,1.90
2022-12-19T00:15:37.032Z,1.90
2022-12-19T00:17:39.636Z,1.90
2022-12-19T00:19:42.116Z,1.90
2022-12-19T00:21:44.636Z,2.00
2022-12-19T00:23:47.220Z,1.90
2022-12-19T00:25:49.715Z,1.90
2022-12-19T00:27:53.204Z,1.90
2022-12-19T00:29:55.812Z,1.90
2022-12-19T00:31:58.547Z,1.90
2022-12-19T00:34:01.733Z,1.90
2022-12-19T00:36:05.458Z,2.00
2022-12-19T00:38:07.988Z,2.00
2022-12-19T00:40:11.628Z,2.00
2022-12-19T00:42:14.508Z,2.00
2022-12-19T00:44:17.425Z,2.10
2022-12-19T00:46:20.215Z,1.60
2022-12-19T00:48:22.899Z,2.00
2022-12-19T00:50:25.442Z,2.00
2022-12-19T00:52:28.040Z,2.10
2022-12-19T00:54:33.237Z,2.10
2022-12-19T00:56:37.740Z,2.00
2022-12-19T00:58:46.869Z,2.10
2022-12-19T01:00:47.224Z,2.30
2022-12-19T01:02:49.852Z,2.20
2022-12-19T01:04:52.355Z,2.20
2022-12-19T01:06:57.867Z,2.20
2022-12-19T01:08:59.229Z,2.20
2022-12-19T01:11:01.744Z,2.20
2022-12-19T01:13:04.253Z,2.20
2022-12-19T01:15:07.636Z,2.20
2022-12-19T01:17:10.822Z,2.20
2022-12-19T01:19:13.433Z,2.20
2022-12-19T01:21:15.956Z,2.30
2022-12-19T01:23:18.462Z,2.30
2022-12-19T01:25:21.055Z,2.30
2022-12-19T01:27:23.688Z,2.30
2022-12-19T01:29:26.182Z,2.30
2022-12-19T01:31:30.152Z,2.20
2022-12-19T01:33:32.660Z,2.20
2022-12-19T01:35:36.033Z,2.30
2022-12-19T01:37:39.154Z,2.30
2022-12-19T01:39:41.739Z,2.30
2022-12-19T01:41:47.053Z,2.40
2022-12-19T01:43:57.207Z,2.50
2022-12-19T01:46:01.235Z,2.50
2022-12-19T01:48:07.133Z,2.50
2022-12-19T01:50:11.615Z,2.50
2022-12-19T01:52:16.611Z,2.60
2022-12-19T01:54:20.277Z,2.60
2022-12-19T01:56:24.554Z,2.50
2022-12-19T01:58:27.282Z,2.70
2022-12-19T02:00:29.775Z,2.60
2022-12-19T02:02:33.885Z,2.70
2022-12-19T02:04:36.675Z,2.80
2022-12-19T02:06:40.441Z,2.80
2022-12-19T02:08:43.042Z,2.80
2022-12-19T02:10:45.849Z,2.80
2022-12-19T02:12:50.108Z,2.80
2022-12-19T02:14:53.477Z,2.80
2022-12-19T02:17:00.614Z,2.80
2022-12-19T02:19:06.758Z,2.90
2022-12-19T02:21:15.532Z,2.90
2022-12-19T02:23:37.578Z,2.90
2022-12-19T02:25:46.392Z,2.90
2022-12-19T02:27:55.563Z,2.90
2022-12-19T02:30:09.999Z,2.90
2022-12-19T02:32:16.556Z,3.00
2022-12-19T02:34:23.228Z,2.90
2022-12-19T02:36:29.519Z,3.00
2022-12-19T02:38:36.715Z,3.00
2022-12-19T02:40:41.476Z,3.00
2022-12-19T02:42:46.539Z,3.00
2022-12-19T02:44:51.443Z,3.10
2022-12-19T02:46:54.234Z,3.10
2022-12-19T02:48:58.334Z,3.20
2022-12-19T02:51:00.884Z,3.20
2022-12-19T02:53:03.474Z,3.30
2022-12-19T02:55:08.834Z,3.30
2022-12-19T02:57:13.350Z,3.30
2022-12-19T02:59:24.092Z,3.40
2022-12-19T03:01:32.426Z,3.40
2022-12-19T03:03:37.616Z,3.40
2022-12-19T03:05:42.475Z,3.40
2022-12-19T03:07:47.032Z,3.50
2022-12-19T03:09:52.310Z,3.50
2022-12-19T03:11:58.513Z,3.50
2022-12-19T03:14:02.859Z,3.60
2022-12-19T03:16:07.731Z,3.60
2022-12-19T03:18:10.956Z,3.70
2022-12-19T03:20:16.745Z,3.80
2022-12-19T03:22:19.346Z,3.90
2022-12-19T03:24:21.856Z,4.00
2022-12-19T03:26:25.459Z,4.00
2022-12-19T03:28:29.795Z,4.10
2022-12-19T03:30:33.762Z,4.10
2022-12-19T03:32:36.748Z,4.20
2022-12-19T03:34:41.067Z,4.20
2022-12-19T03:36:45.400Z,4.30
2022-12-19T03:38:48.584Z,4.40
2022-12-19T03:40:51.651Z,4.30
2022-12-19T03:43:21.291Z,4.30
2022-12-19T03:45:25.909Z,4.50
2022-12-19T03:47:30.327Z,4.40
2022-12-19T03:49:32.819Z,4.40
2022-12-19T03:51:37.350Z,4.50
2022-12-19T03:53:46.982Z,4.50
2022-12-19T03:55:51.329Z,4.50
2022-12-19T03:57:55.651Z,4.50
2022-12-19T04:00:00.490Z,4.50
2022-12-19T04:02:04.170Z,4.10
2022-12-19T04:04:10.252Z,4.60
2022-12-19T04:06:13.724Z,4.50
2022-12-19T04:08:16.591Z,4.60
2022-12-19T04:10:20.968Z,4.50
2022-12-19T04:12:25.399Z,4.50
2022-12-19T04:14:29.267Z,4.50
2022-12-19T04:16:33.712Z,4.60
2022-12-19T04:18:37.358Z,4.70
2022-12-19T04:20:41.774Z,4.80
2022-12-19T04:22:46.391Z,4.80
2022-12-19T04:24:50.216Z,4.90
2022-12-19T04:26:53.995Z,4.90
2022-12-19T04:28:58.326Z,5.00
2022-12-19T04:31:01.581Z,5.00
2022-12-19T04:33:04.545Z,5.00
2022-12-19T04:35:08.794Z,5.10
2022-12-19T04:37:11.781Z,5.10
2022-12-19T04:39:14.447Z,5.10
2022-12-19T04:41:16.960Z,5.10
2022-12-19T04:43:19.821Z,5.10
2022-12-19T04:45:22.312Z,5.40
2022-12-19T04:47:25.218Z,5.30
2022-12-19T04:49:27.889Z,5.30
2022-12-19T04:51:30.378Z,5.30
2022-12-19T04:53:32.951Z,5.30
2022-12-19T04:55:35.584Z,5.40
2022-12-19T04:57:38.060Z,5.40
2022-12-19T04:59:40.594Z,5.40
2022-12-19T05:01:43.222Z,5.40
2022-12-19T05:03:49.990Z,5.40
2022-12-19T05:05:50.037Z,5.40
2022-12-19T05:07:52.541Z,5.40
2022-12-19T05:09:55.127Z,5.30
2022-12-19T05:11:57.627Z,5.40
2022-12-19T05:14:00.178Z,5.30
2022-12-19T05:16:03.645Z,5.30
2022-12-19T05:18:06.620Z,5.40
2022-12-19T05:20:10.614Z,5.50
2022-12-19T05:22:13.102Z,5.60
2022-12-19T05:24:15.958Z,5.80
2022-12-19T05:26:19.083Z,5.90
2022-12-19T05:28:21.557Z,6.00
2022-12-19T05:30:24.267Z,6.30
2022-12-19T05:32:28.568Z,6.30
2022-12-19T05:34:31.101Z,5.90
2022-12-19T05:36:33.709Z,5.80
2022-12-19T05:38:36.206Z,5.80
2022-12-19T05:40:38.677Z,5.80
2022-12-19T05:42:41.186Z,5.80
2022-12-19T05:44:43.661Z,5.80
2022-12-19T05:46:46.341Z,5.80
2022-12-19T05:48:49.227Z,5.70
2022-12-19T05:50:52.250Z,5.90
2022-12-19T05:52:54.982Z,5.90
2022-12-19T05:54:57.458Z,5.90
2022-12-19T05:56:59.930Z,5.90
2022-12-19T05:59:03.099Z,5.90
2022-12-19T06:01:07.542Z,5.90
2022-12-19T06:03:10.235Z,5.90
2022-12-19T06:05:13.110Z,5.90
2022-12-19T06:07:20.717Z,5.90
2022-12-19T06:09:19.886Z,5.90
2022-12-19T06:11:23.038Z,5.90
2022-12-19T06:13:25.642Z,6.00
2022-12-19T06:15:28.121Z,6.00
2022-12-19T06:17:30.734Z,6.10
2022-12-19T06:19:33.211Z,6.00
2022-12-19T06:21:42.260Z,6.10
2022-12-19T06:23:41.710Z,6.20
2022-12-19T06:25:44.247Z,6.20
2022-12-19T06:27:46.778Z,6.20
2022-12-19T06:29:49.232Z,6.20
2022-12-19T06:31:51.763Z,6.20
2022-12-19T06:33:54.926Z,6.20
2022-12-19T06:35:59.206Z,6.20
2022-12-19T06:38:01.719Z,6.20
2022-12-19T06:40:05.178Z,6.30
2022-12-19T06:42:23.987Z,6.30
2022-12-19T06:44:26.598Z,6.30
2022-12-19T06:46:29.273Z,6.30
2022-12-19T06:48:31.796Z,6.30
2022-12-19T06:50:35.461Z,6.30
2022-12-19T06:52:38.547Z,6.40
2022-12-19T06:54:43.162Z,6.40
2022-12-19T06:56:45.720Z,6.40
2022-12-19T06:58:48.534Z,6.40
2022-12-19T07:00:51.445Z,6.50
2022-12-19T07:02:54.262Z,6.40
2022-12-19T07:04:59.211Z,6.50
2022-12-19T07:07:01.780Z,6.50
2022-12-19T07:09:05.176Z,6.50
2022-12-19T07:11:08.701Z,6.40
2022-12-19T07:13:11.219Z,6.50
2022-12-19T07:15:14.637Z,6.50
2022-12-19T07:17:17.961Z,6.50
2022-12-19T07:19:21.506Z,6.50
2022-12-19T07:21:25.041Z,6.60
2022-12-19T07:23:29.130Z,6.60
2022-12-19T07:25:31.930Z,6.60
2022-12-19T07:27:37.797Z,6.60
2022-12-19T07:29:40.798Z,6.60
2022-12-19T07:31:43.383Z,6.70
2022-12-19T07:33:45.920Z,6.70
2022-12-19T07:35:48.440Z,6.70
2022-12-19T07:37:50.916Z,6.80
2022-12-19T07:39:53.528Z,6.80
2022-12-19T07:41:56.041Z,6.80
2022-12-19T07:44:00.501Z,6.90
2022-12-19T07:46:02.986Z,6.90
2022-12-19T07:48:06.270Z,7.00
2022-12-19T07:50:09.367Z,7.10
2022-12-19T07:52:11.853Z,7.10
2022-12-19T07:54:14.381Z,7.20
2022-12-19T07:56:17.682Z,7.20
2022-12-19T07:58:20.384Z,7.30
2022-12-19T08:00:23.457Z,7.20
2022-12-19T08:02:26.057Z,7.20
2022-12-19T08:04:29.012Z,7.20
2022-12-19T08:06:32.682Z,7.20
2022-12-19T08:08:37.008Z,7.20
2022-12-19T08:10:41.872Z,7.20
2022-12-19T08:12:44.602Z,7.20
2022-12-19T08:14:49.840Z,7.30
2022-12-19T08:17:19.300Z,7.20
2022-12-19T08:18:56.574Z,7.30
2022-12-19T08:20:59.029Z,7.30
2022-12-19T08:23:01.547Z,7.30
2022-12-19T08:25:05.244Z,7.30
2022-12-19T08:27:07.739Z,7.30
2022-12-19T08:29:10.374Z,7.30
2022-12-19T08:31:14.049Z,7.30
2022-12-19T08:33:16.618Z,7.40
2022-12-19T08:35:19.160Z,7.40
2022-12-19T08:37:21.725Z,7.50
2022-12-19T08:39:24.263Z,7.60
2022-12-19T08:41:26.755Z,7.50
2022-12-19T08:43:30.000Z,7.50
2022-12-19T08:45:32.660Z,7.50
2022-12-19T08:47:35.144Z,7.60
2022-12-19T08:49:37.666Z,7.60
2022-12-19T08:51:40.139Z,7.60
2022-12-19T08:53:43.513Z,7.60
2022-12-19T08:55:46.123Z,7.60
2022-12-19T08:57:48.610Z,7.50
2022-12-19T08:59:51.134Z,7.50
2022-12-19T09:01:54.908Z,7.50
2022-12-19T09:05:08.480Z,7.50
2022-12-19T09:06:09.239Z,7.50
2022-12-19T09:08:09.191Z,7.50
2022-12-19T09:10:11.747Z,7.60
2022-12-19T09:12:14.748Z,7.60
2022-12-19T09:14:21.511Z,7.60
2022-12-19T09:16:22.394Z,7.60
2022-12-19T09:18:24.996Z,7.60
2022-12-19T09:20:27.500Z,7.70
2022-12-19T09:22:29.982Z,7.70
2022-12-19T09:24:32.544Z,7.80
2022-12-19T09:26:35.563Z,7.80
2022-12-19T09:28:38.830Z,7.80
2022-12-19T09:30:41.539Z,7.90
2022-12-19T09:32:44.043Z,7.90
2022-12-19T09:34:48.534Z,7.90
2022-12-19T09:36:51.127Z,7.90
2022-12-19T09:38:54.330Z,7.90
2022-12-19T09:41:01.530Z,7.90
2022-12-19T09:43:06.669Z,8.00
2022-12-19T09:45:31.263Z,8.00
2022-12-19T09:47:21.024Z,8.00
2022-12-19T09:49:25.139Z,8.10
2022-12-19T09:51:31.894Z,8.10
2022-12-19T09:53:36.494Z,8.20
2022-12-19T09:55:40.828Z,8.20
2022-12-19T09:57:45.188Z,8.30
2022-12-19T09:59:50.253Z,8.30
2022-12-19T10:01:54.739Z,8.40
2022-12-19T10:04:00.808Z,8.40
2022-12-19T10:07:11.125Z,8.40
2022-12-19T10:08:14.646Z,8.40
2022-12-19T10:12:35.678Z,8.40
2022-12-19T10:12:44.328Z,8.40
2022-12-19T10:14:35.622Z,8.40
2022-12-19T10:16:39.988Z,8.50
2022-12-19T10:18:46.690Z,8.50
2022-12-19T10:20:51.282Z,8.50
2022-12-19T10:23:01.350Z,8.60
2022-12-19T10:25:15.368Z,8.60
2022-12-19T10:27:20.120Z,8.60
2022-12-19T10:29:27.758Z,8.70
2022-12-19T10:31:32.830Z,8.80
2022-12-19T10:33:37.512Z,8.90
2022-12-19T10:35:42.772Z,8.90
2022-12-19T10:37:49.783Z,8.90
2022-12-19T10:39:58.316Z,9.00
2022-12-19T10:42:03.104Z,9.10
2022-12-19T10:44:06.851Z,9.10
2022-12-19T10:46:12.536Z,9.20
2022-12-19T10:48:17.699Z,9.30
2022-12-19T10:50:23.021Z,9.30
2022-12-19T10:52:43.085Z,9.30
2022-12-19T10:54:47.409Z,9.30
2022-12-19T10:56:49.888Z,9.40
2022-12-19T10:58:56.263Z,9.40
2022-12-19T11:01:08.665Z,9.40
2022-12-19T11:03:13.468Z,9.40
2022-12-19T11:05:23.242Z,9.30
2022-12-19T11:07:25.881Z,9.30
2022-12-19T11:09:29.563Z,9.30
2022-12-19T11:15:25.801Z,9.30
2022-12-19T11:19:13.294Z,9.20
2022-12-19T11:19:19.969Z,9.20
2022-12-19T11:24:36.512Z,9.10
2022-12-19T11:29:31.091Z,9.10
2022-12-19T11:29:37.048Z,9.20
2022-12-19T11:29:38.360Z,9.20
2022-12-19T11:30:06.373Z,9.20
2022-12-19T11:30:38.843Z,9.20
2022-12-19T11:32:45.559Z,9.20
2022-12-19T11:34:49.890Z,9.10
2022-12-19T11:36:54.380Z,9.20
2022-12-19T11:38:57.171Z,9.20
2022-12-19T11:41:02.777Z,9.10
2022-12-19T11:43:43.214Z,9.20
2022-12-19T11:45:17.345Z,9.30
2022-12-19T11:47:22.840Z,9.30
2022-12-19T11:49:28.045Z,9.30
2022-12-19T11:51:40.948Z,9.40
2022-12-19T11:53:46.764Z,9.40
2022-12-19T11:55:51.507Z,9.40
2022-12-19T11:57:55.406Z,9.40
2022-12-19T12:00:03.078Z,9.40
2022-12-19T12:02:09.370Z,9.40
2022-12-19T12:04:31.656Z,9.40
2022-12-19T12:06:36.221Z,9.40
2022-12-19T12:10:13.649Z,9.40
2022-12-19T12:15:49.723Z,9.40
2022-12-19T12:17:24.418Z,9.40
2022-12-19T12:19:43.202Z,9.40
2022-12-19T12:25:18.701Z,9.40
2022-12-19T12:31:06.542Z,9.40
2022-12-19T12:31:26.663Z,9.40
2022-12-19T12:31:51.533Z,9.50
2022-12-19T12:31:52.365Z,9.50
2022-12-19T12:31:59.002Z,9.40
2022-12-19T12:32:03.193Z,9.50
2022-12-19T12:35:28.680Z,9.50
2022-12-19T12:35:31.718Z,9.60
2022-12-19T12:38:44.657Z,9.70
2022-12-19T12:41:00.857Z,9.70
2022-12-19T12:43:06.972Z,9.70
2022-12-19T12:45:15.848Z,9.80
2022-12-19T12:47:20.183Z,9.90
2022-12-19T12:49:31.316Z,9.90
2022-12-19T12:51:34.824Z,9.90
2022-12-19T12:53:39.155Z,9.90
2022-12-19T12:55:43.888Z,9.90
2022-12-19T12:57:46.375Z,9.90
2022-12-19T12:59:50.812Z,9.90
2022-12-19T13:01:54.671Z,9.90
2022-12-19T13:03:59.074Z,9.90
2022-12-19T13:06:05.539Z,9.80
2022-12-19T13:08:29.601Z,9.90
2022-12-19T13:10:32.101Z,9.80
2022-12-19T13:12:54.522Z,9.90
2022-12-19T13:14:58.796Z,9.80
2022-12-19T13:17:01.761Z,9.90
2022-12-19T13:19:09.142Z,9.90
2022-12-19T13:21:11.105Z,9.90
2022-12-19T13:23:35.582Z,9.90
2022-12-19T13:25:52.099Z,9.90
2022-12-19T13:27:56.798Z,9.90
2022-12-19T13:30:05.551Z,9.90
2022-12-19T13:32:09.177Z,9.90
2022-12-19T13:34:16.057Z,9.90
2022-12-19T13:39:50.575Z,9.90
2022-12-19T13:41:37.942Z,9.90
2022-12-19T13:43:48.343Z,9.90
2022-12-19T13:45:53.479Z,9.90
2022-12-19T13:47:57.775Z,9.90
2022-12-19T13:50:00.859Z,9.90
2022-12-19T13:52:04.829Z,9.90
2022-12-19T13:54:17.030Z,10.00
2022-12-19T13:56:20.053Z,10.00
2022-12-19T13:58:28.930Z,9.90
2022-12-19T14:00:32.432Z,9.90
2022-12-19T14:02:45.073Z,10.00
2022-12-19T14:04:40.221Z,9.90
2022-12-19T14:06:43.650Z,9.90
2022-12-19T14:08:47.065Z,9.90
2022-12-19T14:11:39.688Z,9.90
2022-12-19T14:14:01.377Z,9.90
2022-12-19T14:15:22.524Z,9.90
2022-12-19T14:17:25.080Z,9.90
2022-12-19T14:19:29.387Z,9.90
2022-12-19T14:22:04.371Z,9.90
2022-12-19T14:23:42.683Z,9.90
2022-12-19T14:28:15.654Z,9.90
2022-12-19T14:28:18.784Z,9.90
2022-12-19T14:30:30.733Z,9.90
2022-12-19T14:33:46.859Z,9.90
2022-12-19T14:36:14.623Z,9.80
2022-12-19T14:39:22.602Z,9.80
2022-12-19T14:40:21.717Z,9.80
2022-12-19T14:43:55.529Z,9.80
2022-12-19T14:52:25.933Z,9.80
2022-12-19T14:52:35.006Z,9.90
2022-12-19T14:54:03.318Z,9.80
2022-12-19T14:54:37.411Z,9.80
2022-12-19T14:54:51.480Z,9.80
2022-12-19T14:56:13.526Z,9.90
2022-12-19T14:58:54.359Z,9.80
2022-12-19T14:59:47.346Z,9.70
2022-12-19T15:01:52.460Z,9.70
2022-12-19T15:04:49.168Z,9.70
2022-12-19T15:07:06.027Z,9.70
2022-12-19T15:08:10.894Z,9.60
2022-12-19T15:11:07.401Z,9.60
2022-12-19T15:14:48.855Z,9.60
2022-12-19T15:14:59.077Z,9.70
2022-12-19T15:17:01.377Z,9.70
2022-12-19T15:19:06.384Z,9.80
2022-12-19T15:21:11.933Z,9.80
2022-12-19T15:23:21.453Z,9.80
2022-12-19T15:25:43.978Z,9.80
2022-12-19T15:27:23.039Z,9.70
2022-12-19T15:29:26.232Z,9.70
2022-12-19T15:31:31.545Z,9.70
2022-12-19T15:33:34.092Z,9.70
2022-12-19T15:35:36.611Z,9.70
2022-12-19T15:37:39.102Z,9.70
2022-12-19T15:39:41.890Z,9.60
2022-12-19T15:41:46.014Z,9.60
2022-12-19T15:44:05.601Z,9.60
2022-12-19T15:45:55.316Z,9.70
2022-12-19T15:47:57.806Z,9.70
2022-12-19T15:50:02.196Z,9.70
2022-12-19T15:52:06.557Z,9.70
2022-12-19T15:54:38.696Z,9.70
2022-12-19T15:56:17.890Z,9.70
2022-12-19T15:58:21.218Z,9.70
2022-12-19T16:00:25.165Z,9.70
2022-12-19T16:02:49.390Z,9.70
2022-12-19T16:04:33.102Z,9.80
2022-12-19T16:06:35.920Z,9.80
2022-12-19T16:08:38.481Z,9.80
2022-12-19T16:10:41.544Z,9.80
2022-12-19T16:12:47.487Z,9.80
2022-12-19T16:14:51.819Z,9.80
2022-12-19T16:16:54.825Z,9.90
2022-12-19T16:18:57.906Z,9.80
2022-12-19T16:21:00.423Z,9.80
2022-12-19T16:23:03.026Z,9.70
2022-12-19T16:25:07.117Z,9.70
2022-12-19T16:27:10.815Z,9.60
2022-12-19T16:29:17.280Z,9.60
2022-12-19T16:31:22.652Z,9.60
2022-12-19T16:33:27.412Z,9.50
2022-12-19T16:36:02.323Z,9.50
2022-12-19T16:37:34.631Z,9.50
2022-12-19T16:39:37.147Z,9.50
2022-12-19T16:41:43.616Z,9.60
2022-12-19T16:43:45.497Z,9.50
2022-12-19T16:45:48.001Z,9.60
2022-12-19T16:47:50.800Z,9.60
2022-12-19T16:49:53.294Z,9.50
2022-12-19T16:51:55.780Z,9.60
2022-12-19T16:53:59.655Z,9.60
2022-12-19T16:56:04.174Z,9.60
2022-12-19T16:58:06.864Z,9.60
2022-12-19T17:00:12.940Z,9.60
2022-12-19T17:02:33.743Z,9.60
2022-12-19T17:04:38.350Z,9.70
2022-12-19T17:06:41.291Z,9.70
2022-12-19T17:08:44.184Z,9.70
2022-12-19T17:10:47.295Z,9.70
2022-12-19T17:12:50.151Z,9.80
2022-12-19T17:14:52.757Z,9.80
2022-12-19T17:16:59.866Z,9.80
2022-12-19T17:19:02.478Z,9.80
2022-12-19T17:21:05.097Z,9.80
2022-12-19T17:23:12.394Z,9.90
2022-12-19T17:25:16.347Z,10.00
2022-12-19T17:27:20.458Z,9.90
2022-12-19T17:29:22.995Z,10.00
2022-12-19T17:31:26.570Z,8.10
2022-12-19T17:33:31.020Z,10.10
2022-12-19T17:35:35.490Z,10.10
2022-12-19T17:37:37.979Z,10.20
2022-12-19T17:39:41.609Z,10.20
2022-12-19T17:41:44.451Z,10.20
2022-12-19T17:43:46.943Z,10.30
2022-12-19T17:45:50.343Z,10.30
2022-12-19T17:48:00.370Z,10.40
2022-12-19T17:49:58.036Z,10.40
2022-12-19T17:52:00.525Z,10.50
2022-12-19T17:54:03.220Z,10.50
2022-12-19T17:56:08.557Z,10.40
2022-12-19T17:58:11.219Z,10.40
2022-12-19T18:00:14.935Z,10.40
2022-12-19T18:02:19.449Z,10.30
2022-12-19T18:04:22.207Z,10.30
2022-12-19T18:06:24.843Z,10.30
2022-12-19T18:08:29.058Z,10.30
2022-12-19T18:10:32.002Z,10.30
2022-12-19T18:12:34.619Z,10.40
2022-12-19T18:14:37.366Z,10.30
2022-12-19T18:16:39.908Z,10.30
2022-12-19T18:18:42.576Z,10.30
2022-12-19T18:20:45.097Z,10.40
2022-12-19T18:22:47.852Z,10.30
2022-12-19T18:24:50.377Z,10.20
2022-12-19T18:26:52.890Z,10.20
2022-12-19T18:28:55.430Z,10.20
2022-12-19T18:30:59.741Z,10.20
2022-12-19T18:33:03.235Z,10.30
2022-12-19T18:35:06.500Z,10.20
2022-12-19T18:37:12.511Z,10.20
2022-12-19T18:39:20.151Z,10.20
2022-12-19T18:41:23.737Z,10.30
2022-12-19T18:43:26.416Z,10.30
2022-12-19T18:45:31.260Z,10.30
2022-12-19T18:47:33.949Z,10.30
2022-12-19T18:49:37.030Z,10.30
2022-12-19T18:51:39.527Z,10.20
2022-12-19T18:53:42.576Z,10.30
2022-12-19T18:55:45.211Z,10.30
2022-12-19T18:57:48.491Z,10.30
2022-12-19T18:59:51.084Z,10.40
2022-12-19T19:01:55.051Z,10.40
2022-12-19T19:03:58.580Z,10.40
2022-12-19T19:06:01.159Z,10.30
2022-12-19T19:08:08.048Z,10.30
2022-12-19T19:10:15.655Z,10.30
2022-12-19T19:12:20.106Z,10.30
2022-12-19T19:14:22.711Z,10.20
2022-12-19T19:16:26.218Z,10.30
2022-12-19T19:18:30.205Z,10.30
2022-12-19T19:20:33.983Z,10.30
2022-12-19T19:22:36.533Z,10.30
2022-12-19T19:24:39.232Z,10.30
2022-12-19T19:26:41.712Z,10.30
2022-12-19T19:28:51.698Z,10.30
2022-12-19T19:30:50.715Z,10.30
2022-12-19T19:32:55.114Z,10.30
2022-12-19T19:34:57.625Z,10.30
2022-12-19T19:37:03.060Z,10.40
2022-12-19T19:39:05.688Z,10.40
2022-12-19T19:41:08.506Z,10.40
2022-12-19T19:43:11.199Z,10.40
2022-12-19T19:45:13.693Z,10.50
2022-12-19T19:47:16.214Z,10.50
2022-12-19T19:49:20.775Z,10.60
2022-12-19T19:51:23.248Z,10.60
2022-12-19T19:53:26.827Z,10.50
2022-12-19T19:55:29.462Z,10.50
2022-12-19T19:57:32.114Z,10.50
2022-12-19T19:59:34.622Z,10.40
2022-12-19T20:01:37.317Z,10.40
2022-12-19T20:03:41.438Z,10.40
2022-12-19T20:05:48.729Z,10.40
2022-12-19T20:07:51.798Z,10.50
2022-12-19T20:09:56.696Z,10.60
2022-12-19T20:11:59.873Z,10.50
2022-12-19T20:14:03.894Z,10.60
2022-12-19T20:16:07.864Z,10.60
2022-12-19T20:18:10.435Z,10.60
2022-12-19T20:20:13.347Z,10.60
2022-12-19T20:22:15.816Z,10.60
2022-12-19T20:24:18.346Z,10.60
2022-12-19T20:26:21.173Z,10.60
2022-12-19T20:28:23.661Z,10.60
2022-12-19T20:30:26.219Z,10.60
2022-12-19T20:32:29.822Z,10.70
2022-12-19T20:34:33.513Z,10.70
2022-12-19T20:36:36.155Z,10.80
2022-12-19T20:38:38.784Z,10.80
2022-12-19T20:40:41.331Z,10.80
2022-12-19T20:42:44.252Z,10.80
2022-12-19T20:44:46.797Z,11.10
2022-12-19T20:46:51.842Z,10.80
2022-12-19T20:48:55.054Z,10.90
2022-12-19T20:50:58.180Z,10.90
2022-12-19T20:53:00.852Z,10.90
2022-12-19T20:55:03.410Z,10.90
2022-12-19T20:57:06.008Z,10.90
2022-12-19T20:59:09.192Z,10.90
2022-12-19T21:01:13.605Z,10.90
2022-12-19T21:03:31.835Z,10.90
2022-12-19T21:05:20.559Z,10.80
2022-12-19T21:07:23.313Z,10.80
2022-12-19T21:09:25.948Z,10.80
2022-12-19T21:11:28.434Z,10.80
2022-12-19T21:13:31.263Z,10.70
2022-12-19T21:15:33.935Z,10.60
2022-12-19T21:17:36.518Z,10.60
2022-12-19T21:19:39.107Z,10.60
2022-12-19T21:21:41.732Z,10.70
2022-12-19T21:23:44.694Z,10.70
2022-12-19T21:25:47.138Z,10.70
2022-12-19T21:27:49.686Z,10.70
2022-12-19T21:29:52.165Z,10.70
2022-12-19T21:31:54.703Z,10.80
2022-12-19T21:33:58.078Z,10.80
2022-12-19T21:36:05.768Z,10.90
2022-12-19T21:38:08.389Z,11.00
2022-12-19T21:40:11.674Z,11.00
2022-12-19T21:42:14.190Z,11.00
2022-12-19T21:44:16.687Z,11.00
2022-12-19T21:46:20.221Z,11.00
2022-12-19T21:48:22.682Z,11.10
2022-12-19T21:50:25.603Z,11.10
2022-12-19T21:52:28.074Z,11.20
2022-12-19T21:54:30.688Z,11.20
2022-12-19T21:56:34.418Z,11.20
2022-12-19T21:58:37.007Z,11.30
2022-12-19T22:00:39.579Z,11.30
2022-12-19T22:03:01.539Z,11.30
2022-12-19T22:04:47.856Z,11.30
2022-12-19T22:06:50.898Z,11.30
2022-12-19T22:08:53.521Z,11.30
2022-12-19T22:10:56.010Z,11.30
2022-12-19T22:12:58.537Z,11.40
2022-12-19T22:15:01.002Z,11.40
2022-12-19T22:17:03.510Z,11.40
2022-12-19T22:19:06.188Z,11.40
2022-12-19T22:21:10.499Z,11.40
2022-12-19T22:23:13.559Z,11.40
2022-12-19T22:25:17.042Z,11.40
2022-12-19T22:27:19.523Z,11.30
2022-12-19T22:29:22.045Z,11.30
2022-12-19T22:31:25.845Z,11.30
2022-12-19T22:33:28.869Z,11.30
2022-12-19T22:35:33.150Z,11.30
2022-12-19T22:37:35.689Z,11.30
2022-12-19T22:39:38.528Z,11.50
2022-12-19T22:41:41.431Z,11.40
2022-12-19T22:43:44.054Z,11.40
2022-12-19T22:45:46.562Z,11.40
2022-12-19T22:47:49.127Z,11.30
2022-12-19T22:49:51.943Z,11.30
2022-12-19T22:51:54.613Z,11.30
2022-12-19T22:53:57.349Z,11.40
2022-12-19T22:56:03.243Z,11.30
2022-12-19T22:58:05.817Z,11.30
2022-12-19T23:00:11.202Z,11.30
2022-12-19T23:02:13.794Z,11.30
2022-12-19T23:04:16.824Z,11.30
2022-12-19T23:06:20.202Z,11.30
2022-12-19T23:08:22.780Z,11.20
2022-12-19T23:10:25.256Z,11.20
2022-12-19T23:12:27.772Z,11.20
2022-12-19T23:14:30.408Z,11.10
2022-12-19T23:16:34.109Z,11.20
2022-12-19T23:18:37.417Z,11.20
2022-12-19T23:20:39.908Z,11.30
2022-12-19T23:22:42.412Z,11.30
2022-12-19T23:24:44.999Z,11.30
2022-12-19T23:26:47.523Z,11.30
2022-12-19T23:28:51.969Z,11.30
2022-12-19T23:31:03.133Z,11.30
2022-12-19T23:33:05.781Z,11.30
2022-12-19T23:35:09.618Z,11.30
2022-12-19T23:37:12.811Z,11.30
2022-12-19T23:39:15.613Z,11.30
2022-12-19T23:41:18.638Z,11.40
2022-12-19T23:43:21.468Z,11.40
2022-12-19T23:45:24.569Z,11.40
2022-12-19T23:47:28.569Z,11.50
2022-12-19T23:49:31.755Z,11.50
2022-12-19T23:51:34.867Z,11.50
2022-12-19T23:53:37.873Z,11.50
2022-12-19T23:55:40.656Z,11.60
2022-12-19T23:57:43.568Z,11.70
2022-12-19T23:59:46.573Z,11.80
